»·PEaware :: N85AA KOMK-KYKM

N85AA :: KOMK-KYKM

FLIGHT INFORMATION

Flight Status: Arrived
Operator: Privately registered:
United States
More flights under this callsign
Pilot: Dan A. (12711)
Aircraft: SOCATA TBM-900
(TBM9)
More flights by this aircraft type
Origin: KOMK Omak
United States
Destination: KYKM Yakima Air Term/Mcallister
United States
More flights between these airports :: More routes between these airports
Route: +GETNG1 GETNG MARRK
File this flight plan on PilotEdge
Remarks:
Altitude:
(Current/Filed)
14,000ft
Speed:
(Current/Filed)
250kts
Departed: 16-Jul-19 07:19 PM
Arrived: 16-Jul-19 07:57 PM
Distance/Time
Traveled:
121nm/0:38
Distance/Time
To Go:
Arrived

Flight Plot

Page will automatically refresh every two minutes.

Flight plan parsing failed; only flown route is shown


Map Options




Map Legend


Flown Route
Filed Route
Departure Airport
Arrival Airport
Navaid (VOR, NDB)
Fix

Horizontal Profiles

Position Reports

Time Latitude Longitude Heading Altitude Ground
Speed
16-Jul-19 18:42 48.461827 -119.516886 270 1303ft 0kts
16-Jul-19 18:43 48.461827 -119.516886 270 1303ft 0kts
16-Jul-19 18:44 48.461827 -119.516886 270 1303ft 0kts
16-Jul-19 18:45 48.461827 -119.516886 270 1303ft 0kts
16-Jul-19 18:46 48.461827 -119.516886 270 1303ft 0kts
16-Jul-19 18:47 48.461827 -119.516886 270 1303ft 0kts
16-Jul-19 18:48 48.461827 -119.516886 270 1303ft 0kts
16-Jul-19 18:49 48.461827 -119.516886 270 1303ft 0kts
16-Jul-19 18:50 48.461827 -119.516886 270 1303ft 0kts
16-Jul-19 18:51 48.461827 -119.516886 270 1303ft 0kts
16-Jul-19 18:52 48.461827 -119.516886 270 1303ft 0kts
16-Jul-19 18:53 48.461827 -119.516886 270 1303ft 0kts
16-Jul-19 18:54 48.461827 -119.516886 270 1303ft 0kts
16-Jul-19 18:55 48.461827 -119.516886 270 1303ft 0kts
16-Jul-19 18:56 48.461827 -119.516886 270 1303ft 0kts
16-Jul-19 18:57 48.461827 -119.516886 270 1303ft 0kts
16-Jul-19 18:58 48.461827 -119.516886 270 1303ft 0kts
16-Jul-19 18:59 48.461827 -119.516886 270 1303ft 0kts
16-Jul-19 19:01 48.461827 -119.516886 270 1303ft 0kts
16-Jul-19 19:02 48.461827 -119.516886 270 1303ft 0kts
16-Jul-19 19:03 48.461827 -119.516886 270 1303ft 0kts
16-Jul-19 19:04 48.461827 -119.516886 270 1303ft 0kts
16-Jul-19 19:05 48.461827 -119.516886 270 1303ft 0kts
16-Jul-19 19:06 48.461827 -119.516886 270 1303ft 0kts
16-Jul-19 19:07 48.461827 -119.516886 270 1303ft 0kts
16-Jul-19 19:08 48.461827 -119.516886 270 1303ft 0kts
16-Jul-19 19:09 48.461827 -119.516886 270 1303ft 0kts
16-Jul-19 19:10 48.461827 -119.516886 270 1303ft 0kts
16-Jul-19 19:11 48.461827 -119.516886 270 1303ft 0kts
16-Jul-19 19:12 48.461827 -119.516886 270 1303ft 0kts
16-Jul-19 19:13 48.461827 -119.516886 270 1303ft 0kts
16-Jul-19 19:14 48.463752 -119.516875 12 1305ft 19kts
16-Jul-19 19:15 48.469417 -119.515521 12 1308ft 12kts
16-Jul-19 19:16 48.470564 -119.515572 281 1309ft 0kts
16-Jul-19 19:17 48.470564 -119.515572 281 1309ft 0kts
16-Jul-19 19:18 48.470564 -119.515572 281 1309ft 0kts
16-Jul-19 19:19 48.468622 -119.517028 188 1307ft 46kts
16-Jul-19 19:19 48.444737 -119.516547 160 2137ft 117kts
16-Jul-19 19:21 48.412029 -119.495898 216 4131ft 118kts
16-Jul-19 19:22 48.408313 -119.540534 215 5642ft 126kts
16-Jul-19 19:22 48.381809 -119.529500 158 7454ft 127kts
16-Jul-19 19:24 48.338094 -119.513893 171 9851ft 148kts
16-Jul-19 19:24 48.303778 -119.506828 173 11563ft 152kts
16-Jul-19 19:25 48.261081 -119.501772 177 13424ft 158kts
16-Jul-19 19:27 48.198826 -119.496183 176 14033ft 235kts
16-Jul-19 19:27 48.142639 -119.505172 204 14032ft 257kts
16-Jul-19 19:28 48.075817 -119.550908 204 14002ft 266kts
16-Jul-19 19:29 48.008224 -119.596797 204 13999ft 268kts
16-Jul-19 19:30 47.940120 -119.642896 204 14000ft 268kts
16-Jul-19 19:31 47.872851 -119.688307 204 14000ft 269kts
16-Jul-19 19:32 47.804491 -119.734303 203 14000ft 269kts
16-Jul-19 19:33 47.738391 -119.778664 204 13997ft 258kts
16-Jul-19 19:34 47.673220 -119.822273 203 13999ft 255kts
16-Jul-19 19:35 47.617449 -119.859337 206 14009ft 256kts
16-Jul-19 19:36 47.552026 -119.903039 206 14004ft 258kts
16-Jul-19 19:37 47.486228 -119.946731 206 14002ft 259kts
16-Jul-19 19:38 47.420443 -119.990299 206 14000ft 259kts
16-Jul-19 19:39 47.354468 -120.033868 206 14000ft 259kts
16-Jul-19 19:40 47.288596 -120.077240 206 14000ft 259kts
16-Jul-19 19:41 47.222485 -120.120661 206 14000ft 259kts
16-Jul-19 19:42 47.156531 -120.163837 206 14008ft 259kts
16-Jul-19 19:43 47.090845 -120.206781 206 14027ft 255kts
16-Jul-19 19:44 47.026036 -120.248997 205 13302ft 252kts
16-Jul-19 19:45 46.963306 -120.289728 205 12122ft 236kts
16-Jul-19 19:46 46.903852 -120.317994 195 10772ft 211kts
16-Jul-19 19:47 46.850319 -120.334447 195 9441ft 197kts
16-Jul-19 19:48 46.794013 -120.351664 195 8181ft 214kts
16-Jul-19 19:49 46.734740 -120.370321 195 6893ft 220kts
16-Jul-19 19:50 46.680270 -120.387547 195 5010ft 166kts
16-Jul-19 19:51 46.637203 -120.400464 195 4410ft 190kts
16-Jul-19 19:52 46.581748 -120.418360 195 4364ft 207kts
16-Jul-19 19:53 46.533600 -120.446418 294 3763ft 170kts
16-Jul-19 19:54 46.557624 -120.499996 293 1392ft 116kts
16-Jul-19 19:55 46.566658 -120.536053 294 1105ft 94kts
16-Jul-19 19:56 46.571814 -120.555608 343 1095ft 22kts
16-Jul-19 19:57 46.573438 -120.554042 323 1095ft 2kts
16-Jul-19 19:58 46.573440 -120.554045 320 1095ft 0kts
16-Jul-19 19:59 46.573440 -120.554045 320 1095ft 0kts
16-Jul-19 20:00 46.573440 -120.554045 320 1095ft 0kts

Navigation Log

Ident Type
Flight plan parsing failed, navigation log unavailable